createdAt,value
2023-05-14T00:05:49.283Z,16.80
2023-05-14T00:11:43.845Z,17.00
2023-05-14T00:17:37.936Z,16.50
2023-05-14T00:23:31.231Z,16.10
2023-05-14T00:29:25.840Z,16.20
2023-05-14T00:35:20.624Z,16.30
2023-05-14T00:41:13.879Z,16.50
2023-05-14T00:47:09.706Z,16.40
2023-05-14T00:53:03.150Z,16.30
2023-05-14T00:58:56.835Z,16.40
2023-05-14T01:04:52.512Z,16.20
2023-05-14T01:10:52.380Z,16.10
2023-05-14T01:16:47.356Z,16.30
2023-05-14T01:22:41.958Z,16.20
2023-05-14T01:28:38.927Z,15.70
2023-05-14T01:34:33.132Z,15.50
2023-05-14T01:40:29.110Z,15.50
2023-05-14T01:46:24.552Z,15.20
2023-05-14T01:52:21.345Z,15.00
2023-05-14T01:58:16.157Z,15.30
2023-05-14T02:04:10.398Z,15.20
2023-05-14T02:10:03.898Z,15.30
2023-05-14T02:15:59.312Z,15.10
2023-05-14T02:21:52.831Z,14.70
2023-05-14T02:27:46.247Z,14.80
2023-05-14T02:33:41.301Z,14.60
2023-05-14T02:39:34.787Z,14.50
2023-05-14T02:45:28.366Z,14.40
2023-05-14T02:51:23.310Z,14.90
2023-05-14T02:57:16.874Z,14.60
2023-05-14T03:03:10.484Z,14.80
2023-05-14T03:09:05.798Z,14.90
2023-05-14T03:14:59.319Z,15.00
2023-05-14T03:20:52.734Z,14.80
2023-05-14T03:26:47.512Z,14.90
2023-05-14T03:32:41.657Z,14.80
2023-05-14T03:38:35.086Z,14.70
2023-05-14T03:44:29.522Z,14.80
2023-05-14T03:50:25.407Z,14.70
2023-05-14T03:56:19.135Z,14.70
2023-05-14T04:02:14.397Z,14.70
2023-05-14T04:08:07.495Z,14.70
2023-05-14T04:14:00.500Z,14.60
2023-05-14T04:19:55.087Z,14.60
2023-05-14T04:25:48.090Z,14.60
2023-05-14T04:31:42.467Z,14.60
2023-05-14T04:37:36.857Z,14.50
2023-05-14T04:43:29.825Z,14.60
2023-05-14T04:49:22.816Z,14.60
2023-05-14T04:55:17.668Z,14.80
2023-05-14T05:01:10.702Z,14.90
2023-05-14T05:07:04.171Z,14.90
2023-05-14T05:12:58.461Z,15.00
2023-05-14T05:18:51.468Z,15.10
2023-05-14T05:24:44.457Z,15.20
2023-05-14T05:30:38.902Z,15.10
2023-05-14T05:36:32.408Z,15.20
2023-05-14T05:42:26.041Z,15.10
2023-05-14T05:48:20.921Z,15.20
2023-05-14T05:54:13.979Z,15.30
2023-05-14T06:00:13.502Z,15.50
2023-05-14T06:06:08.246Z,15.50
2023-05-14T06:12:01.253Z,15.60
2023-05-14T06:17:54.291Z,15.70
2023-05-14T06:23:48.884Z,15.90
2023-05-14T06:29:42.142Z,16.00
2023-05-14T06:35:35.529Z,16.10
2023-05-14T06:41:30.415Z,16.20
2023-05-14T06:47:23.546Z,16.40
2023-05-14T06:53:17.264Z,16.50
2023-05-14T06:59:11.606Z,16.60
2023-05-14T07:05:04.737Z,16.70
2023-05-14T07:10:58.257Z,16.90
2023-05-14T07:16:52.861Z,17.00
2023-05-14T07:22:45.857Z,17.10
2023-05-14T07:28:39.030Z,17.30
2023-05-14T07:34:33.613Z,17.40
2023-05-14T07:40:27.255Z,17.50
2023-05-14T07:46:20.277Z,17.60
2023-05-14T07:52:14.975Z,17.80
2023-05-14T07:58:07.975Z,17.90
2023-05-14T08:04:01.092Z,18.00
2023-05-14T08:09:55.986Z,18.20
2023-05-14T08:15:49.094Z,18.30
2023-05-14T08:21:42.090Z,18.30
2023-05-14T08:27:36.502Z,18.50
2023-05-14T08:33:29.493Z,18.60
2023-05-14T08:39:22.716Z,18.70
2023-05-14T08:45:20.359Z,18.80
2023-05-14T08:51:14.021Z,18.90
2023-05-14T08:57:10.586Z,19.00
2023-05-14T09:03:06.708Z,19.10
2023-05-14T09:08:59.785Z,19.30
2023-05-14T09:14:52.998Z,19.50
2023-05-14T09:20:48.513Z,19.60
2023-05-14T09:26:41.513Z,19.70
2023-05-14T09:32:39.147Z,19.80
2023-05-14T09:38:34.379Z,19.90
2023-05-14T09:44:28.298Z,20.10
2023-05-14T09:50:21.799Z,20.10
2023-05-14T09:56:16.662Z,20.20
2023-05-14T10:02:17.098Z,20.40
2023-05-14T10:08:14.628Z,20.60
2023-05-14T10:14:18.114Z,21.20
2023-05-14T10:20:16.563Z,22.00
2023-05-14T10:26:10.144Z,22.20
2023-05-14T10:32:09.358Z,22.70
2023-05-14T10:38:02.599Z,22.90
2023-05-14T10:43:59.430Z,22.90
2023-05-14T10:49:56.520Z,23.10
2023-05-14T10:55:49.898Z,23.20
2023-05-14T11:01:43.360Z,23.00
2023-05-14T11:07:40.144Z,22.30
2023-05-14T11:13:34.467Z,22.10
2023-05-14T11:19:27.685Z,22.30
2023-05-14T11:25:22.983Z,21.90
2023-05-14T11:31:16.001Z,21.80
2023-05-14T11:37:10.312Z,22.00
2023-05-14T11:43:05.303Z,21.80
2023-05-14T11:48:58.536Z,21.50
2023-05-14T11:54:51.772Z,21.30
2023-05-14T12:00:47.788Z,21.30
2023-05-14T12:06:41.217Z,21.40
2023-05-14T12:12:37.393Z,21.60
2023-05-14T12:18:33.407Z,21.80
2023-05-14T12:24:27.138Z,22.00
2023-05-14T12:30:21.645Z,22.30
2023-05-14T12:36:21.932Z,22.40
2023-05-14T12:42:16.176Z,22.90
2023-05-14T12:48:09.410Z,23.10
2023-05-14T12:54:04.089Z,23.10
2023-05-14T12:59:57.968Z,22.90
2023-05-14T13:05:52.144Z,22.50
2023-05-14T13:11:46.500Z,22.10
2023-05-14T13:17:41.516Z,21.80
2023-05-14T13:23:34.783Z,21.60
2023-05-14T13:29:31.759Z,21.50
2023-05-14T13:35:25.355Z,21.60
2023-05-14T13:41:18.772Z,21.60
2023-05-14T13:47:13.449Z,21.70
2023-05-14T13:53:06.629Z,22.00
2023-05-14T13:58:59.826Z,22.30
2023-05-14T14:04:54.476Z,23.70
2023-05-14T14:10:47.702Z,23.50
2023-05-14T14:16:41.045Z,23.20
2023-05-14T14:22:35.727Z,23.10
2023-05-14T14:28:28.933Z,23.10
2023-05-14T14:34:22.138Z,22.90
2023-05-14T14:40:17.075Z,23.60
2023-05-14T14:46:10.412Z,23.30
2023-05-14T14:52:03.570Z,23.40
2023-05-14T14:57:58.111Z,23.40
2023-05-14T15:03:51.410Z,23.00
2023-05-14T15:09:44.676Z,23.10
2023-05-14T15:15:39.003Z,23.00
2023-05-14T15:21:32.633Z,23.20
2023-05-14T15:27:26.159Z,23.10
2023-05-14T15:33:20.826Z,22.80
2023-05-14T15:39:13.996Z,22.90
2023-05-14T15:45:07.793Z,22.80
2023-05-14T15:51:02.533Z,22.70
2023-05-14T15:56:57.279Z,22.70
2023-05-14T16:02:50.612Z,22.60
2023-05-14T16:08:45.734Z,22.60
2023-05-14T16:14:40.547Z,22.50
2023-05-14T16:20:34.965Z,22.50
2023-05-14T16:26:29.303Z,22.40
2023-05-14T16:32:22.894Z,22.30
2023-05-14T16:38:16.048Z,22.30
2023-05-14T16:44:10.578Z,22.20
2023-05-14T16:50:03.736Z,22.10
2023-05-14T16:55:56.763Z,22.00
2023-05-14T17:01:51.400Z,22.00
2023-05-14T17:07:44.625Z,21.80
2023-05-14T17:13:38.030Z,21.80
2023-05-14T17:19:32.562Z,21.70
2023-05-14T17:25:26.680Z,21.60
2023-05-14T17:31:20.082Z,21.50
2023-05-14T17:37:14.672Z,21.50
2023-05-14T17:43:08.630Z,21.30
2023-05-14T17:49:01.929Z,21.20
2023-05-14T17:54:56.522Z,21.20
2023-05-14T18:00:49.769Z,21.10
2023-05-14T18:06:42.962Z,21.00
2023-05-14T18:12:37.543Z,20.90
2023-05-14T18:18:30.817Z,20.80
2023-05-14T18:24:23.922Z,20.60
2023-05-14T18:30:18.436Z,20.60
2023-05-14T18:36:11.644Z,20.50
2023-05-14T18:42:05.099Z,20.50
2023-05-14T18:47:59.587Z,20.40
2023-05-14T18:53:52.855Z,20.30
2023-05-14T18:59:45.875Z,20.20
2023-05-14T19:05:40.189Z,20.20
2023-05-14T19:11:33.431Z,20.00
2023-05-14T19:17:26.858Z,20.00
2023-05-14T19:23:21.251Z,19.70
2023-05-14T19:29:14.294Z,19.80
2023-05-14T19:35:07.913Z,19.70
2023-05-14T19:41:02.400Z,19.70
2023-05-14T19:46:55.652Z,19.70
2023-05-14T19:52:48.827Z,19.70
2023-05-14T19:58:43.269Z,19.70
2023-05-14T20:04:39.889Z,19.70
2023-05-14T20:10:33.193Z,19.60
2023-05-14T20:16:28.965Z,19.50
2023-05-14T20:22:22.153Z,19.30
2023-05-14T20:28:15.393Z,19.30
2023-05-14T20:34:09.880Z,19.30
2023-05-14T20:40:04.776Z,19.30
2023-05-14T20:45:59.388Z,19.30
2023-05-14T20:51:53.974Z,19.30
2023-05-14T20:57:47.187Z,19.10
2023-05-14T21:03:40.549Z,18.80
2023-05-14T21:09:34.971Z,18.90
2023-05-14T21:15:30.293Z,18.70
2023-05-14T21:21:23.300Z,18.70
2023-05-14T21:27:17.983Z,18.60
2023-05-14T21:33:11.238Z,18.80
2023-05-14T21:39:04.328Z,18.70
2023-05-14T21:44:58.683Z,18.50
2023-05-14T21:50:51.742Z,18.50
2023-05-14T21:56:44.994Z,18.30
2023-05-14T22:02:43.068Z,18.30
2023-05-14T22:08:36.145Z,18.20
2023-05-14T22:14:29.744Z,17.80
2023-05-14T22:20:24.248Z,18.00
2023-05-14T22:26:17.544Z,17.80
2023-05-14T22:32:10.571Z,17.60
2023-05-14T22:38:05.112Z,17.30
2023-05-14T22:43:58.057Z,17.20
2023-05-14T22:49:51.223Z,16.90
2023-05-14T22:55:45.910Z,16.80
2023-05-14T23:01:39.516Z,16.80
2023-05-14T23:07:32.573Z,16.90
2023-05-14T23:13:27.090Z,16.50
2023-05-14T23:19:20.168Z,16.60
2023-05-14T23:25:13.480Z,16.40
2023-05-14T23:31:07.903Z,16.50
2023-05-14T23:37:01.049Z,16.60
2023-05-14T23:42:54.177Z,16.60
2023-05-14T23:48:48.819Z,16.50
2023-05-14T23:54:42.047Z,16.20
